createdAt,value
2022-11-05T00:01:40.108Z,10.43
2022-11-05T00:04:46.026Z,6.47
2022-11-05T00:08:06.381Z,7.37
2022-11-05T00:10:53.400Z,10.07
2022-11-05T00:13:59.140Z,9.53
2022-11-05T00:16:46.115Z,10.77
2022-11-05T00:19:33.073Z,8.83
2022-11-05T00:22:38.883Z,10.07
2022-11-05T00:25:26.353Z,10.73
2022-11-05T00:28:13.302Z,8.77
2022-11-05T00:31:06.610Z,9.77
2022-11-05T00:33:53.576Z,8.33
2022-11-05T00:36:40.551Z,5.20
2022-11-05T00:39:27.535Z,6.80
2022-11-05T00:42:33.040Z,7.53
2022-11-05T00:45:20.374Z,8.67
2022-11-05T00:48:26.599Z,7.33
2022-11-05T00:51:13.631Z,11.73
2022-11-05T00:54:00.918Z,10.90
2022-11-05T00:56:47.877Z,10.40
2022-11-05T00:59:35.277Z,11.77
2022-11-05T01:02:22.402Z,11.90
2022-11-05T01:05:09.853Z,13.00
2022-11-05T01:07:57.048Z,10.30
2022-11-05T01:10:49.669Z,6.83
2022-11-05T01:13:37.284Z,6.93
2022-11-05T01:16:24.265Z,7.93
2022-11-05T01:19:11.330Z,9.13
2022-11-05T01:21:58.666Z,11.70
2022-11-05T01:24:45.637Z,12.30
2022-11-05T01:27:32.863Z,8.20
2022-11-05T01:30:20.006Z,11.40
2022-11-05T01:33:10.004Z,9.63
2022-11-05T01:35:57.431Z,10.97
2022-11-05T01:38:44.779Z,10.60
2022-11-05T01:41:31.753Z,7.43
2022-11-05T01:44:52.804Z,11.33
2022-11-05T01:48:08.726Z,9.63
2022-11-05T01:51:03.348Z,7.23
2022-11-05T01:53:55.837Z,5.40
2022-11-05T01:57:00.857Z,9.23
2022-11-05T01:59:52.138Z,6.83
2022-11-05T02:02:39.308Z,7.70
2022-11-05T02:05:26.623Z,8.07
2022-11-05T02:08:34.504Z,7.57
2022-11-05T02:11:22.026Z,6.63
2022-11-05T02:14:08.996Z,11.13
2022-11-05T02:17:28.811Z,10.00
2022-11-05T02:20:51.818Z,12.63
2022-11-05T02:24:08.179Z,8.70
2022-11-05T02:27:32.451Z,6.10
2022-11-05T02:30:43.521Z,7.30
2022-11-05T02:33:48.427Z,7.97
2022-11-05T02:37:06.880Z,8.77
2022-11-05T02:40:05.169Z,6.30
2022-11-05T02:42:55.079Z,8.67
2022-11-05T02:45:45.121Z,5.23
2022-11-05T02:48:53.499Z,5.83
2022-11-05T02:51:57.549Z,9.37
2022-11-05T02:54:50.363Z,11.47
2022-11-05T02:57:37.625Z,7.50
2022-11-05T03:00:38.010Z,8.40
2022-11-05T03:03:27.381Z,12.63
2022-11-05T03:06:19.830Z,5.43
2022-11-05T03:09:25.877Z,7.70
2022-11-05T03:12:15.830Z,6.80
2022-11-05T03:15:42.390Z,8.83
2022-11-05T03:18:35.774Z,12.03
2022-11-05T03:21:41.533Z,6.90
2022-11-05T03:24:34.238Z,6.93
2022-11-05T03:27:27.727Z,7.43
2022-11-05T03:30:18.478Z,6.93
2022-11-05T03:33:12.715Z,12.13
2022-11-05T03:36:05.016Z,10.43
2022-11-05T03:38:55.052Z,8.63
2022-11-05T03:41:45.513Z,6.90
2022-11-05T03:44:36.505Z,9.60
2022-11-05T03:47:28.205Z,6.07
2022-11-05T03:50:34.662Z,6.43
2022-11-05T03:53:34.971Z,8.80
2022-11-05T03:56:38.711Z,10.33
2022-11-05T03:59:27.289Z,6.27
2022-11-05T04:02:16.346Z,7.73
2022-11-05T04:05:05.077Z,6.63
2022-11-05T04:08:14.212Z,10.13
2022-11-05T04:11:19.951Z,12.23
2022-11-05T04:14:07.000Z,6.47
2022-11-05T04:17:12.185Z,6.50
2022-11-05T04:20:17.818Z,8.40
2022-11-05T04:23:25.828Z,5.30
2022-11-05T04:26:12.784Z,16.13
2022-11-05T04:29:18.541Z,11.57
2022-11-05T04:32:05.728Z,8.03
2022-11-05T04:34:52.670Z,9.37
2022-11-05T04:37:39.585Z,6.03
2022-11-05T04:40:26.617Z,4.13
2022-11-05T04:43:15.583Z,5.13
2022-11-05T04:46:02.637Z,11.70
2022-11-05T04:48:49.684Z,6.90
2022-11-05T04:51:36.724Z,8.50
2022-11-05T04:54:23.803Z,9.77
2022-11-05T04:57:10.961Z,5.23
2022-11-05T04:59:57.971Z,5.60
2022-11-05T05:02:45.670Z,5.10
2022-11-05T05:05:32.656Z,5.77
2022-11-05T05:08:19.592Z,7.80
2022-11-05T05:11:10.528Z,6.47
2022-11-05T05:13:57.821Z,7.97
2022-11-05T05:16:44.730Z,5.93
2022-11-05T05:19:51.774Z,6.13
2022-11-05T05:22:38.731Z,7.87
2022-11-05T05:25:25.700Z,5.73
2022-11-05T05:28:12.656Z,7.93
2022-11-05T05:31:00.701Z,11.40
2022-11-05T05:33:48.199Z,11.83
2022-11-05T05:36:35.149Z,6.30
2022-11-05T05:39:22.090Z,5.90
2022-11-05T05:42:09.053Z,6.37
2022-11-05T05:44:56.003Z,5.07
2022-11-05T05:47:42.959Z,9.47
2022-11-05T05:50:29.986Z,4.93
2022-11-05T05:53:17.123Z,6.60
2022-11-05T05:56:04.915Z,7.60
2022-11-05T05:58:52.210Z,6.77
2022-11-05T06:01:39.410Z,5.90
2022-11-05T06:04:26.934Z,7.83
2022-11-05T06:07:13.868Z,5.20
2022-11-05T06:10:00.811Z,8.00
2022-11-05T06:12:47.750Z,9.97
2022-11-05T06:15:36.006Z,4.43
2022-11-05T06:18:23.167Z,5.67
2022-11-05T06:21:12.230Z,10.83
2022-11-05T06:24:01.541Z,6.87
2022-11-05T06:26:48.483Z,5.70
2022-11-05T06:29:35.419Z,6.60
2022-11-05T06:32:22.375Z,8.13
2022-11-05T06:35:09.686Z,6.03
2022-11-05T06:38:01.155Z,10.80
2022-11-05T06:40:48.082Z,5.87
2022-11-05T06:43:35.067Z,9.27
2022-11-05T06:46:21.995Z,6.97
2022-11-05T06:49:08.963Z,6.77
2022-11-05T06:51:56.160Z,5.90
2022-11-05T06:54:43.826Z,6.47
2022-11-05T06:57:30.758Z,10.33
2022-11-05T07:00:18.456Z,6.63
2022-11-05T07:03:06.904Z,11.20
2022-11-05T07:05:54.237Z,7.70
2022-11-05T07:08:41.160Z,7.10
2022-11-05T07:11:28.088Z,9.37
2022-11-05T07:14:15.048Z,7.37
2022-11-05T07:17:01.993Z,6.90
2022-11-05T07:19:48.993Z,7.73
2022-11-05T07:22:36.647Z,10.33
2022-11-05T07:25:23.632Z,6.20
2022-11-05T07:28:11.328Z,7.17
2022-11-05T07:30:59.219Z,7.30
2022-11-05T07:33:46.152Z,7.17
2022-11-05T07:36:33.151Z,9.63
2022-11-05T07:39:20.220Z,6.80
2022-11-05T07:42:07.150Z,6.07
2022-11-05T07:44:54.098Z,9.17
2022-11-05T07:47:57.477Z,5.50
2022-11-05T07:50:44.451Z,9.03
2022-11-05T07:53:31.566Z,7.50
2022-11-05T07:56:18.521Z,8.10
2022-11-05T07:59:05.529Z,11.07
2022-11-05T08:01:52.704Z,10.17
2022-11-05T08:04:42.365Z,12.50
2022-11-05T08:07:29.429Z,6.30
2022-11-05T08:10:16.374Z,8.67
2022-11-05T08:13:03.964Z,7.83
2022-11-05T08:15:51.992Z,8.17
2022-11-05T08:18:39.385Z,5.77
2022-11-05T08:21:26.499Z,7.27
2022-11-05T08:24:13.455Z,6.07
2022-11-05T08:27:00.644Z,10.20
2022-11-05T08:29:47.668Z,6.97
2022-11-05T08:32:35.296Z,8.50
2022-11-05T08:35:22.233Z,5.40
2022-11-05T08:38:13.697Z,7.90
2022-11-05T08:41:01.127Z,6.57
2022-11-05T08:43:48.136Z,8.07
2022-11-05T08:46:41.454Z,4.87
2022-11-05T08:49:28.721Z,5.43
2022-11-05T08:52:15.738Z,6.43
2022-11-05T08:55:02.683Z,4.47
2022-11-05T08:57:58.149Z,5.27
2022-11-05T09:00:47.384Z,4.77
2022-11-05T09:03:34.459Z,5.87
2022-11-05T09:06:21.585Z,5.43
2022-11-05T09:09:08.548Z,7.27
2022-11-05T09:12:11.812Z,7.67
2022-11-05T09:14:59.811Z,6.47
2022-11-05T09:17:47.159Z,4.43
2022-11-05T09:20:34.320Z,8.17
2022-11-05T09:23:21.464Z,10.60
2022-11-05T09:26:09.848Z,4.57
2022-11-05T09:28:56.794Z,5.85
2022-11-05T09:31:44.124Z,4.05
2022-11-05T09:34:31.127Z,7.22
2022-11-05T09:37:18.172Z,6.38
2022-11-05T09:40:05.850Z,4.00
2022-11-05T09:42:54.930Z,6.72
2022-11-05T09:45:42.692Z,5.75
2022-11-05T09:48:32.844Z,3.35
2022-11-05T09:51:24.051Z,6.28
2022-11-05T10:00:54.743Z,4.03
2022-11-05T10:03:54.448Z,4.40
2022-11-05T10:06:48.515Z,5.55
2022-11-05T10:09:49.848Z,3.95
2022-11-05T10:12:48.232Z,5.25
2022-11-05T10:15:41.159Z,3.47
2022-11-05T10:18:43.837Z,5.20
2022-11-05T10:21:59.505Z,4.30
2022-11-05T10:24:43.622Z,4.75
2022-11-05T10:27:35.366Z,4.05
2022-11-05T10:30:22.829Z,4.20
2022-11-05T10:33:15.167Z,4.55
2022-11-05T10:36:06.889Z,4.80
2022-11-05T10:38:58.869Z,2.10
2022-11-05T10:42:06.935Z,4.15
2022-11-05T10:45:18.675Z,4.57
2022-11-05T10:48:28.703Z,3.85
2022-11-05T10:51:17.002Z,5.15
2022-11-05T10:54:11.703Z,4.18
2022-11-05T10:56:58.703Z,4.57
2022-11-05T10:59:45.725Z,4.38
2022-11-05T11:02:35.690Z,4.15
2022-11-05T11:05:27.340Z,3.65
2022-11-05T11:08:17.090Z,1.95
2022-11-05T11:11:07.683Z,6.03
2022-11-05T11:13:57.512Z,4.20
2022-11-05T11:16:47.253Z,2.45
2022-11-05T11:19:35.624Z,2.15
2022-11-05T11:22:22.780Z,2.00
2022-11-05T11:25:26.608Z,2.67
2022-11-05T11:28:33.457Z,7.47
2022-11-05T11:31:30.042Z,2.07
2022-11-05T11:34:36.072Z,2.40
2022-11-05T11:37:27.761Z,2.67
2022-11-05T11:40:21.074Z,4.57
2022-11-05T11:43:36.040Z,3.70
2022-11-05T11:46:23.151Z,5.33
2022-11-05T11:49:42.651Z,3.13
2022-11-05T11:52:32.080Z,5.30
2022-11-05T11:55:22.304Z,7.13
2022-11-05T11:58:11.457Z,2.10
2022-11-05T12:01:14.070Z,2.80
2022-11-05T12:04:19.883Z,5.20
2022-11-05T12:07:30.912Z,3.97
2022-11-05T12:10:59.313Z,2.53
2022-11-05T12:13:56.039Z,5.50
2022-11-05T12:17:03.898Z,8.33
2022-11-05T12:20:12.164Z,4.23
2022-11-05T12:23:26.507Z,1.40
2022-11-05T12:26:52.008Z,3.30
2022-11-05T12:29:41.887Z,6.10
2022-11-05T12:32:50.238Z,5.10
2022-11-05T12:36:06.385Z,2.93
2022-11-05T12:39:19.772Z,4.07
2022-11-05T12:42:34.285Z,5.00
2022-11-05T12:45:39.732Z,1.87
2022-11-05T12:48:48.334Z,4.63
2022-11-05T12:51:59.747Z,5.13
2022-11-05T12:55:05.197Z,2.67
2022-11-05T12:57:59.044Z,2.73
2022-11-05T13:00:51.199Z,3.03
2022-11-05T13:03:47.752Z,5.23
2022-11-05T13:06:41.800Z,4.93
2022-11-05T13:09:36.096Z,5.73
2022-11-05T13:12:27.464Z,4.80
2022-11-05T13:15:26.151Z,3.53
2022-11-05T13:18:17.987Z,5.77
2022-11-05T13:21:09.130Z,3.27
2022-11-05T13:24:05.091Z,4.37
2022-11-05T13:26:58.498Z,6.07
2022-11-05T13:29:56.840Z,5.03
2022-11-05T13:32:48.217Z,6.13
2022-11-05T13:35:42.954Z,3.90
2022-11-05T13:38:50.508Z,3.90
2022-11-05T13:42:02.191Z,6.67
2022-11-05T13:45:05.879Z,4.70
2022-11-05T13:48:07.957Z,4.03
2022-11-05T13:51:13.822Z,4.13
2022-11-05T13:54:37.384Z,4.10
2022-11-05T13:57:39.480Z,7.67
2022-11-05T14:00:28.447Z,3.33
2022-11-05T14:03:20.049Z,4.70
2022-11-05T14:06:09.278Z,7.33
2022-11-05T14:09:09.842Z,4.30
2022-11-05T14:11:58.102Z,4.40
2022-11-05T14:14:48.357Z,5.87
2022-11-05T14:17:54.621Z,3.73
2022-11-05T14:20:46.882Z,5.83
2022-11-05T14:23:39.832Z,5.60
2022-11-05T14:26:33.103Z,5.53
2022-11-05T14:29:23.939Z,4.87
2022-11-05T14:32:16.966Z,4.23
2022-11-05T14:35:16.149Z,6.73
2022-11-05T14:38:05.117Z,5.30
2022-11-05T14:41:04.531Z,6.47
2022-11-05T14:43:59.593Z,7.53
2022-11-05T14:46:50.044Z,5.03
2022-11-05T14:49:51.515Z,5.40
2022-11-05T14:52:40.038Z,5.20
2022-11-05T14:55:37.735Z,5.70
2022-11-05T14:58:28.946Z,9.33
2022-11-05T15:01:15.921Z,12.90
2022-11-05T15:04:24.891Z,14.20
2022-11-05T15:07:29.525Z,8.40
2022-11-05T15:10:17.573Z,11.77
2022-11-05T15:13:06.238Z,5.60
2022-11-05T15:15:53.403Z,5.73
2022-11-05T15:18:45.730Z,4.50
2022-11-05T15:21:36.410Z,3.90
2022-11-05T15:24:28.002Z,3.77
2022-11-05T15:27:35.177Z,5.53
2022-11-05T15:30:23.949Z,6.70
2022-11-05T15:33:20.370Z,6.23
2022-11-05T15:36:27.581Z,6.90
2022-11-05T15:39:29.731Z,9.47
2022-11-05T15:42:22.295Z,9.27
2022-11-05T15:45:20.397Z,9.37
2022-11-05T15:48:15.821Z,9.20
2022-11-05T15:51:02.929Z,8.37
2022-11-05T15:56:59.077Z,9.10
2022-11-05T15:59:47.264Z,8.63
2022-11-05T16:02:36.444Z,8.67
2022-11-05T16:05:29.391Z,9.97
2022-11-05T16:08:26.272Z,7.30
2022-11-05T16:11:21.829Z,6.33
2022-11-05T16:14:18.408Z,5.13
2022-11-05T16:17:20.961Z,9.57
2022-11-05T16:20:22.133Z,5.03
2022-11-05T16:23:25.473Z,4.57
2022-11-05T16:27:00.611Z,6.23
2022-11-05T16:29:40.913Z,5.97
2022-11-05T16:32:31.702Z,22.40
2022-11-05T16:35:22.064Z,36.13
2022-11-05T16:38:12.611Z,43.70
2022-11-05T16:41:00.330Z,39.97
2022-11-05T16:44:00.183Z,39.17
2022-11-05T16:46:49.171Z,49.77
2022-11-05T16:49:38.509Z,50.07
2022-11-05T16:52:25.572Z,34.93
2022-11-05T16:55:14.368Z,40.70
2022-11-05T16:58:02.415Z,40.13
2022-11-05T17:00:52.478Z,19.87
2022-11-05T17:03:39.716Z,30.80
2022-11-05T17:06:26.651Z,20.73
2022-11-05T17:09:14.046Z,24.27
2022-11-05T17:12:02.345Z,21.27
2022-11-05T17:14:49.307Z,16.47
2022-11-05T17:17:36.427Z,16.30
2022-11-05T17:20:40.704Z,16.40
2022-11-05T17:23:28.734Z,20.43
2022-11-05T17:26:15.952Z,15.17
2022-11-05T17:29:02.981Z,24.23
2022-11-05T17:31:49.992Z,14.37
2022-11-05T17:34:36.971Z,9.13
2022-11-05T17:37:23.990Z,12.07
2022-11-05T17:40:15.122Z,10.23
2022-11-05T17:43:02.428Z,13.13
2022-11-05T17:45:57.550Z,8.70
2022-11-05T17:48:47.138Z,10.83
2022-11-05T17:51:34.565Z,8.87
2022-11-05T17:54:21.520Z,9.97
2022-11-05T17:57:08.518Z,10.07
2022-11-05T17:59:55.718Z,7.43
2022-11-05T18:02:43.180Z,11.20
2022-11-05T18:05:30.970Z,10.03
2022-11-05T18:08:18.303Z,9.20
2022-11-05T18:11:05.430Z,11.60
2022-11-05T18:13:52.448Z,9.27
2022-11-05T18:16:39.536Z,10.73
2022-11-05T18:19:27.679Z,11.83
2022-11-05T18:22:16.279Z,13.70
2022-11-05T18:25:05.094Z,12.33
2022-11-05T18:27:52.113Z,34.63
2022-11-05T18:30:39.589Z,40.70
2022-11-05T18:33:26.585Z,37.30
2022-11-05T18:36:21.497Z,40.00
2022-11-05T18:39:08.630Z,13.03
2022-11-05T18:41:55.577Z,14.10
2022-11-05T18:44:42.545Z,12.10
2022-11-05T18:47:32.371Z,13.93
2022-11-05T18:50:19.384Z,12.70
2022-11-05T18:53:06.333Z,11.50
2022-11-05T18:55:53.501Z,9.57
2022-11-05T18:58:40.684Z,15.30
2022-11-05T19:01:28.714Z,10.93
2022-11-05T19:04:15.826Z,12.20
2022-11-05T19:07:05.495Z,10.10
2022-11-05T19:09:52.929Z,11.57
2022-11-05T19:12:39.950Z,11.20
2022-11-05T19:15:27.267Z,14.30
2022-11-05T19:18:14.511Z,11.90
2022-11-05T19:21:02.509Z,9.03
2022-11-05T19:23:50.638Z,9.40
2022-11-05T19:26:37.871Z,14.57
2022-11-05T19:29:24.823Z,11.97
2022-11-05T19:32:11.795Z,12.43
2022-11-05T19:34:58.750Z,9.43
2022-11-05T19:37:45.718Z,14.50
2022-11-05T19:40:32.705Z,13.20
2022-11-05T19:43:19.637Z,14.60
2022-11-05T19:46:11.821Z,15.60
2022-11-05T19:49:00.682Z,12.40
2022-11-05T19:51:47.657Z,13.17
2022-11-05T19:54:35.928Z,16.00
2022-11-05T19:57:23.020Z,14.40
2022-11-05T20:00:10.555Z,13.90
2022-11-05T20:02:57.599Z,16.43
2022-11-05T20:05:44.686Z,14.40
2022-11-05T20:08:31.994Z,10.57
2022-11-05T20:11:19.040Z,12.87
2022-11-05T20:14:07.399Z,15.10
2022-11-05T20:16:54.531Z,13.03
2022-11-05T20:19:41.539Z,12.93
2022-11-05T20:22:28.672Z,14.03
2022-11-05T20:25:15.832Z,15.83
2022-11-05T20:28:03.860Z,15.50
2022-11-05T20:30:50.942Z,14.43
2022-11-05T20:33:38.491Z,13.77
2022-11-05T20:36:26.401Z,13.37
2022-11-05T20:39:13.550Z,15.13
2022-11-05T20:42:00.715Z,15.50
2022-11-05T20:44:47.752Z,13.23
2022-11-05T20:47:35.092Z,13.50
2022-11-05T20:50:22.048Z,14.77
2022-11-05T20:53:10.538Z,14.27
2022-11-05T20:55:57.637Z,15.80
2022-11-05T20:58:44.856Z,15.27
2022-11-05T21:01:33.664Z,13.10
2022-11-05T21:04:20.757Z,14.63
2022-11-05T21:07:07.811Z,12.57
2022-11-05T21:09:54.775Z,11.00
2022-11-05T21:12:42.566Z,10.83
2022-11-05T21:15:29.514Z,11.17
2022-11-05T21:18:18.260Z,14.60
2022-11-05T21:21:11.004Z,12.57
2022-11-05T21:23:57.982Z,13.20
2022-11-05T21:26:44.992Z,13.33
2022-11-05T21:29:31.969Z,10.13
2022-11-05T21:32:19.116Z,10.07
2022-11-05T21:35:06.403Z,13.87
2022-11-05T21:37:53.491Z,13.73
2022-11-05T21:40:40.785Z,12.20
2022-11-05T21:43:27.737Z,12.77
2022-11-05T21:46:14.746Z,14.77
2022-11-05T21:49:02.303Z,11.53
2022-11-05T21:52:08.146Z,12.40
2022-11-05T21:55:13.719Z,17.67
2022-11-05T21:58:25.074Z,13.27
2022-11-05T22:01:12.063Z,13.20
2022-11-05T22:04:03.097Z,14.40
2022-11-05T22:06:50.427Z,13.23
2022-11-05T22:09:37.514Z,14.27
2022-11-05T22:12:25.381Z,15.03
2022-11-05T22:15:12.726Z,10.27
2022-11-05T22:17:59.693Z,13.80
2022-11-05T22:20:46.657Z,12.47
2022-11-05T22:23:33.613Z,17.27
2022-11-05T22:26:20.862Z,14.33
2022-11-05T22:29:08.266Z,12.47
2022-11-05T22:31:56.735Z,12.47
2022-11-05T22:34:43.740Z,11.27
2022-11-05T22:37:30.709Z,13.03
2022-11-05T22:40:17.728Z,11.03
2022-11-05T22:43:04.682Z,14.80
2022-11-05T22:45:51.642Z,12.73
2022-11-05T22:48:40.147Z,11.87
2022-11-05T22:51:29.980Z,12.80
2022-11-05T22:54:17.477Z,13.57
2022-11-05T22:57:04.512Z,12.60
2022-11-05T22:59:51.447Z,13.63
2022-11-05T23:02:38.659Z,11.77
2022-11-05T23:05:25.780Z,11.37
2022-11-05T23:08:31.224Z,11.23
2022-11-05T23:11:35.334Z,13.73
2022-11-05T23:14:22.284Z,14.13
2022-11-05T23:17:28.133Z,10.33
2022-11-05T23:20:40.549Z,8.47
2022-11-05T23:23:46.300Z,11.50
2022-11-05T23:26:49.762Z,9.20
2022-11-05T23:29:36.743Z,9.80
2022-11-05T23:32:27.105Z,10.47
2022-11-05T23:35:14.564Z,10.93
2022-11-05T23:38:20.146Z,8.83
2022-11-05T23:41:25.880Z,8.43
2022-11-05T23:44:31.320Z,8.87
2022-11-05T23:47:36.759Z,12.60
2022-11-05T23:50:24.905Z,10.17
2022-11-05T23:53:12.054Z,7.10
2022-11-05T23:56:07.012Z,8.57
2022-11-05T23:58:54.175Z,9.03
